Time;durP1;ratioP1;P1;durP2;ratioP2;P2;SDS_P1;SDS_P2;PMS_P1;PMS_P2;Temp;Humidity;BMP_temperature;BMP_pressure;BME280_temperature;BME280_humidity;BME280_pressure;Samples;Min_cycle;Max_cycle;Signal;HPM_P1;HPM_P2
2023/09/02 00:00:53;;;;;;;16.73;15.10;;;;;;;18.47;100.00;101504.00;5278470;28;20029;-77
2023/09/02 00:03:24;;;;;;;16.10;14.40;;;;;;;18.35;100.00;101474.03;5271761;28;20032;-77
2023/09/02 00:05:56;;;;;;;16.00;14.43;;;;;;;18.46;100.00;101498.81;5275718;28;20093;-77
2023/09/02 00:08:27;;;;;;;16.27;14.83;;;;;;;18.36;100.00;101488.97;5272192;28;20036;-77
2023/09/02 00:10:59;;;;;;;17.57;15.77;;;;;;;18.50;100.00;101509.03;5274955;28;20025;-77
2023/09/02 00:13:30;;;;;;;15.57;14.20;;;;;;;18.64;100.00;101528.25;5265886;28;20446;-77
2023/09/02 00:16:02;;;;;;;16.10;14.43;;;;;;;18.32;100.00;101484.06;5274796;28;20052;-77
2023/09/02 00:18:34;;;;;;;16.27;14.47;;;;;;;18.48;100.00;101499.53;5272942;28;20024;-77
2023/09/02 00:21:05;;;;;;;16.10;14.60;;;;;;;18.54;100.00;101506.97;5265800;28;20487;-77
2023/09/02 00:23:39;;;;;;;17.30;15.60;;;;;;;18.48;100.00;101489.75;5275301;28;20090;-77
2023/09/02 00:26:11;;;;;;;15.88;14.57;;;;;;;18.76;100.00;101521.09;5275385;28;20025;-77
2023/09/02 00:28:42;;;;;;;16.23;14.70;;;;;;;18.58;100.00;101489.84;5274088;28;20020;-77
2023/09/02 00:31:14;;;;;;;16.47;14.97;;;;;;;18.48;100.00;101483.63;5272451;28;20032;-77
2023/09/02 00:33:45;;;;;;;16.40;13.93;;;;;;;18.68;100.00;101505.81;5275162;28;20780;-77
2023/09/02 00:36:17;;;;;;;16.20;14.17;;;;;;;18.68;100.00;101520.88;5274329;28;20132;-77
2023/09/02 00:38:48;;;;;;;15.23;13.93;;;;;;;18.50;100.00;101493.13;5275287;28;20426;-77
2023/09/02 00:41:46;;;;;;;16.73;14.97;;;;;;;19.05;100.00;101539.00;5274251;28;20020;-77
2023/09/02 00:44:18;;;;;;;14.77;13.43;;;;;;;18.48;100.00;101500.38;5269476;28;20029;-77
2023/09/02 00:46:51;;;;;;;16.20;14.50;;;;;;;18.58;100.00;101495.16;5273824;28;20039;-77
2023/09/02 00:49:22;;;;;;;15.53;14.13;;;;;;;18.85;100.00;101538.88;5273709;28;20028;-77
2023/09/02 00:51:54;;;;;;;15.93;14.43;;;;;;;18.59;100.00;101494.16;5273423;28;20487;-77
2023/09/02 00:54:25;;;;;;;15.70;14.17;;;;;;;18.76;100.00;101539.69;5274697;28;20036;-76
2023/09/02 00:56:57;;;;;;;16.87;14.93;;;;;;;18.61;100.00;101507.31;5274673;28;20021;-76
2023/09/02 00:59:28;;;;;;;15.33;13.93;;;;;;;18.50;100.00;101517.00;5273606;28;20488;-76
2023/09/02 01:02:02;;;;;;;16.37;14.97;;;;;;;18.48;100.00;101483.63;5273197;28;20025;-76
2023/09/02 01:04:34;;;;;;;17.58;15.10;;;;;;;18.46;100.00;101480.25;5275176;28;20020;-76
2023/09/02 01:07:06;;;;;;;18.10;16.07;;;;;;;18.47;100.00;101529.66;5268525;28;20112;-76
2023/09/02 01:09:38;;;;;;;16.87;15.07;;;;;;;18.62;100.00;101522.25;5273555;28;20030;-76
2023/09/02 01:12:10;;;;;;;16.10;14.63;;;;;;;18.41;100.00;101507.19;5270608;28;20029;-76
2023/09/02 01:14:41;;;;;;;16.13;14.70;;;;;;;18.62;100.00;101535.53;5271631;28;20028;-76
2023/09/02 01:17:12;;;;;;;17.50;16.00;;;;;;;18.43;100.00;101499.09;5274524;28;20029;-76
2023/09/02 01:19:47;;;;;;;16.83;15.13;;;;;;;18.74;100.00;101529.19;5274271;28;20024;-76
2023/09/02 01:22:33;;;;;;;15.03;13.63;;;;;;;18.70;100.00;101518.94;5274632;28;20023;-76
2023/09/02 01:25:17;;;;;;;17.60;16.00;;;;;;;18.67;100.00;101516.56;5274269;28;20033;-76
2023/09/02 01:27:57;;;;;;;16.45;14.95;;;;;;;18.44;100.00;101493.66;5274218;28;20493;-77
2023/09/02 01:30:33;;;;;;;17.03;14.53;;;;;;;18.76;100.00;101537.03;5273953;28;20016;-77
2023/09/02 01:33:08;;;;;;;16.93;15.43;;;;;;;18.24;100.00;101512.03;5258688;28;20032;-77
2023/09/02 01:35:40;;;;;;;18.07;16.37;;;;;;;18.30;100.00;101517.81;5272518;28;20047;-77
2023/09/02 01:38:14;;;;;;;16.97;15.37;;;;;;;18.49;100.00;101533.03;5274058;28;20081;-77
2023/09/02 01:40:47;;;;;;;16.77;15.15;;;;;;;18.25;100.00;101507.59;5273084;28;20097;-77
2023/09/02 01:43:20;;;;;;;15.93;14.40;;;;;;;18.41;100.00;101527.53;5274195;28;20027;-77
2023/09/02 01:45:52;;;;;;;17.93;14.63;;;;;;;18.41;100.00;101544.31;5273997;28;20102;-76
2023/09/02 01:48:26;;;;;;;14.73;13.00;;;;;;;18.50;100.00;101535.56;5273516;28;20101;-76
2023/09/02 01:50:58;;;;;;;14.57;13.17;;;;;;;18.55;100.00;101537.84;5264418;28;20479;-76
2023/09/02 01:53:32;;;;;;;14.73;13.10;;;;;;;18.44;100.00;101536.09;5268790;28;20031;-76
2023/09/02 01:56:04;;;;;;;16.57;14.13;;;;;;;18.36;100.00;101534.06;5274549;28;20043;-77
2023/09/02 01:58:36;;;;;;;14.97;13.70;;;;;;;18.51;100.00;101557.63;5263058;28;20021;-77
2023/09/02 02:01:07;;;;;;;16.73;13.97;;;;;;;18.41;100.00;101535.50;5276174;28;20016;-77
2023/09/02 02:03:50;;;;;;;14.57;13.17;;;;;;;18.61;100.00;101553.25;5276107;28;20039;-77
2023/09/02 02:06:23;;;;;;;15.17;13.00;;;;;;;18.31;100.00;101524.81;5276903;28;20020;-77
2023/09/02 02:09:00;;;;;;;14.37;12.90;;;;;;;18.62;100.00;101570.84;5274085;28;20035;-77
2023/09/02 02:11:37;;;;;;;17.90;13.20;;;;;;;18.67;100.00;101569.63;5255869;28;20033;-77
2023/09/02 02:14:08;;;;;;;14.93;13.27;;;;;;;18.43;100.00;101544.19;5264013;28;20031;-76
2023/09/02 02:16:40;;;;;;;14.10;12.80;;;;;;;18.50;100.00;101559.44;5273874;28;20487;-77
2023/09/02 02:19:12;;;;;;;14.90;13.50;;;;;;;18.30;100.00;101537.22;5274294;28;20024;-76
2023/09/02 02:21:43;;;;;;;13.87;12.53;;;;;;;18.41;100.00;101524.88;5289181;28;20031;-75
2023/09/02 02:24:14;;;;;;;13.23;12.03;;;;;;;18.30;100.00;101526.63;5285957;28;20025;-76
2023/09/02 02:26:46;;;;;;;15.30;12.10;;;;;;;18.49;100.00;101572.81;5277082;28;20027;-76
2023/09/02 02:29:17;;;;;;;13.80;12.30;;;;;;;18.54;100.00;101549.41;5277135;28;20020;-75
2023/09/02 02:31:49;;;;;;;15.93;12.83;;;;;;;18.56;100.00;101560.75;5276347;28;20028;-76
2023/09/02 02:34:23;;;;;;;13.20;11.87;;;;;;;18.45;100.00;101547.53;5275393;28;20041;-75
2023/09/02 02:36:54;;;;;;;12.30;11.07;;;;;;;18.42;100.00;101542.47;5291238;28;20020;-75
2023/09/02 02:39:26;;;;;;;17.43;11.50;;;;;;;18.58;100.00;101581.84;5290314;28;20023;-75
2023/09/02 02:41:57;;;;;;;11.80;10.60;;;;;;;18.61;100.00;101578.91;5285411;28;20026;-75
2023/09/02 02:44:29;;;;;;;12.97;10.60;;;;;;;18.42;100.00;101539.81;5282780;28;20020;-75
2023/09/02 02:47:00;;;;;;;12.23;10.87;;;;;;;18.58;100.00;101579.19;5270694;28;20059;-75
2023/09/02 02:49:31;;;;;;;12.13;11.03;;;;;;;18.64;100.00;101585.81;5279471;28;20020;-75
2023/09/02 02:52:03;;;;;;;11.57;10.57;;;;;;;18.53;100.00;101562.81;5278721;28;20036;-76
2023/09/02 02:54:37;;;;;;;10.93;9.93;;;;;;;18.35;100.00;101526.22;5285049;28;20027;-76
2023/09/02 02:57:08;;;;;;;12.30;10.15;;;;;;;18.64;100.00;101567.22;5278041;28;20029;-76
2023/09/02 02:59:39;;;;;;;11.63;10.53;;;;;;;18.31;100.00;101541.53;5276962;28;20483;-76
2023/09/02 03:02:42;;;;;;;10.77;9.40;;;;;;;18.88;100.00;101590.88;5278002;28;20372;-75
2023/09/02 03:05:13;;;;;;;11.73;10.40;;;;;;;18.61;100.00;101582.44;5274265;28;20036;-76
2023/09/02 03:07:45;;;;;;;12.63;9.40;;;;;;;18.41;100.00;101556.72;5272673;28;20016;-77
2023/09/02 03:10:18;;;;;;;11.30;10.10;;;;;;;18.54;100.00;101578.59;5291454;28;20032;-76
2023/09/02 03:12:49;;;;;;;12.70;10.30;;;;;;;18.33;100.00;101544.06;5269638;28;20040;-75
2023/09/02 03:15:21;;;;;;;13.23;9.80;;;;;;;18.31;100.00;101540.72;5272095;28;20021;-75
2023/09/02 03:17:52;;;;;;;13.50;9.97;;;;;;;18.36;100.00;101544.66;5269232;28;20028;-76
2023/09/02 03:20:23;;;;;;;12.90;8.60;;;;;;;18.53;100.00;101568.13;5277156;28;20032;-76
2023/09/02 03:22:55;;;;;;;11.97;8.83;;;;;;;18.53;100.00;101561.00;5276448;28;20468;-75
2023/09/02 03:25:27;;;;;;;12.00;8.77;;;;;;;18.29;100.00;101532.06;5275622;28;20036;-76
2023/09/02 03:28:00;;;;;;;9.60;7.70;;;;;;;18.58;100.00;101569.44;5277730;28;20115;-76
2023/09/02 03:30:32;;;;;;;9.50;8.27;;;;;;;18.40;100.00;101547.91;5279443;28;20507;-74
2023/09/02 03:33:03;;;;;;;8.77;7.87;;;;;;;18.19;100.00;101529.28;5273180;28;20036;-75
2023/09/02 03:35:39;;;;;;;8.73;7.70;;;;;;;18.24;100.00;101540.38;5275114;28;20131;-76
2023/09/02 03:38:10;;;;;;;8.47;7.40;;;;;;;18.25;100.00;101548.22;5277195;28;20032;-75
2023/09/02 03:40:41;;;;;;;12.23;7.97;;;;;;;18.30;100.00;101566.38;5283688;28;20080;-75
2023/09/02 03:43:13;;;;;;;10.00;8.03;;;;;;;18.13;100.00;101549.19;5276710;28;20060;-75
2023/09/02 03:45:44;;;;;;;10.43;7.50;;;;;;;18.40;100.00;101581.56;5274506;28;20036;-76
2023/09/02 03:48:19;;;;;;;12.27;7.60;;;;;;;18.33;100.00;101579.38;5276441;28;20079;-76
2023/09/02 03:51:01;;;;;;;12.93;8.50;;;;;;;18.62;100.00;101607.16;5275939;28;20036;-76
2023/09/02 03:53:32;;;;;;;9.00;8.10;;;;;;;18.37;100.00;101604.69;5275362;28;20115;-76
2023/09/02 03:56:04;;;;;;;11.13;7.83;;;;;;;18.17;100.00;101568.38;5273456;28;20024;-76
2023/09/02 03:58:36;;;;;;;9.30;7.33;;;;;;;18.18;100.00;101567.38;5273930;28;20196;-76
2023/09/02 04:01:07;;;;;;;10.77;7.07;;;;;;;18.30;100.00;101570.84;5272655;28;20597;-76
2023/09/02 04:03:38;;;;;;;11.83;7.00;;;;;;;18.43;100.00;101581.31;5273969;28;20092;-77
2023/09/02 04:06:10;;;;;;;7.40;6.67;;;;;;;18.41;100.00;101562.00;5275629;28;20423;-76
2023/09/02 04:08:41;;;;;;;7.57;6.70;;;;;;;18.29;100.00;101538.19;5276747;28;20214;-76
2023/09/02 04:11:12;;;;;;;8.33;7.00;;;;;;;18.45;100.00;101587.31;5275277;28;20059;-76
2023/09/02 04:13:44;;;;;;;6.77;6.17;;;;;;;18.61;100.00;101614.25;5273195;28;20138;-76
2023/09/02 04:16:15;;;;;;;8.47;6.33;;;;;;;18.45;100.00;101582.03;5277551;28;20020;-76
2023/09/02 04:18:47;;;;;;;6.23;5.63;;;;;;;18.19;100.00;101561.94;5288387;28;20066;-76
2023/09/02 04:21:18;;;;;;;7.87;5.47;;;;;;;18.29;100.00;101575.31;5258933;28;20025;-76
2023/09/02 04:23:50;;;;;;;6.47;5.77;;;;;;;18.19;100.00;101548.69;5293120;28;20031;-76
2023/09/02 04:26:21;;;;;;;6.13;5.53;;;;;;;18.30;100.00;101565.53;5280096;28;20027;-76
2023/09/02 04:28:55;;;;;;;10.53;5.87;;;;;;;18.23;100.00;101575.81;5285221;28;20072;-76
2023/09/02 04:31:27;;;;;;;7.38;5.30;;;;;;;18.31;100.00;101581.31;5293708;28;20038;-75
2023/09/02 04:33:58;;;;;;;14.40;6.47;;;;;;;18.09;100.00;101559.19;5272892;28;20024;-76
2023/09/02 04:36:30;;;;;;;7.37;5.23;;;;;;;18.44;100.00;101614.78;5283055;28;20461;-76
2023/09/02 04:39:04;;;;;;;8.73;5.60;;;;;;;18.37;100.00;101594.09;5258010;28;20029;-77
2023/09/02 04:41:36;;;;;;;5.95;5.35;;;;;;;18.30;100.00;101602.66;5274933;28;20702;-76
2023/09/02 04:44:07;;;;;;;6.10;4.77;;;;;;;18.42;100.00;101616.72;5275973;28;20059;-76
2023/09/02 04:46:38;;;;;;;5.30;4.77;;;;;;;18.27;100.00;101582.56;5290611;28;20023;-77
2023/09/02 04:49:10;;;;;;;5.80;5.17;;;;;;;18.26;100.00;101589.66;5274894;28;20079;-77
2023/09/02 04:51:41;;;;;;;6.93;5.50;;;;;;;18.09;100.00;101580.38;5266700;28;20107;-76
2023/09/02 04:54:14;;;;;;;6.37;4.80;;;;;;;18.29;100.00;101591.22;5265765;28;20037;-76
2023/09/02 04:56:45;;;;;;;6.50;4.87;;;;;;;18.12;100.00;101585.44;5267166;28;20020;-76
2023/09/02 04:59:16;;;;;;;6.10;5.03;;;;;;;18.29;100.00;101591.22;5263894;28;20032;-77
2023/09/02 05:01:48;;;;;;;5.57;5.07;;;;;;;18.28;100.00;101584.22;5282447;28;20028;-76
2023/09/02 05:04:19;;;;;;;8.73;5.40;;;;;;;18.37;100.00;101594.09;5277509;28;21128;-77
2023/09/02 05:06:51;;;;;;;7.70;4.77;;;;;;;18.49;100.00;101604.66;5270424;28;20115;-77
2023/09/02 05:09:22;;;;;;;8.23;4.80;;;;;;;18.56;100.00;101619.09;5272401;28;20028;-77
2023/09/02 05:11:54;;;;;;;6.27;4.83;;;;;;;18.51;100.00;101605.38;5279169;28;20020;-77
2023/09/02 05:14:25;;;;;;;15.07;5.37;;;;;;;18.26;100.00;101581.69;5265824;28;20103;-77
2023/09/02 05:16:58;;;;;;;5.60;4.73;;;;;;;18.23;100.00;101573.16;5274463;28;20395;-77
2023/09/02 05:19:30;;;;;;;5.67;5.17;;;;;;;18.16;100.00;101590.53;5260101;28;20029;-77
2023/09/02 05:22:01;;;;;;;7.73;5.27;;;;;;;18.29;100.00;101615.09;5273438;28;20060;-78
2023/09/02 05:24:32;;;;;;;7.93;5.53;;;;;;;18.18;100.00;101615.94;5283502;28;20454;-75
2023/09/02 05:27:05;;;;;;;9.20;5.27;;;;;;;18.24;100.00;101630.50;5285769;28;20052;-76
2023/09/02 05:29:37;;;;;;;7.33;5.27;;;;;;;18.22;100.00;101621.84;5265829;28;20009;-76
2023/09/02 05:32:09;;;;;;;7.40;5.40;;;;;;;18.21;100.00;101642.22;5256570;28;20044;-76
2023/09/02 05:34:40;;;;;;;7.70;5.00;;;;;;;18.19;100.00;101653.88;5273328;28;20106;-77
2023/09/02 05:37:12;;;;;;;7.77;5.30;;;;;;;18.37;100.00;101667.50;5277347;28;20024;-77
2023/09/02 05:39:44;;;;;;;8.63;5.10;;;;;;;18.29;100.00;101649.56;5271002;28;20027;-77
2023/09/02 05:42:15;;;;;;;7.90;5.40;;;;;;;18.42;100.00;101664.47;5269138;28;20036;-77
2023/09/02 05:44:47;;;;;;;9.97;5.53;;;;;;;18.24;100.00;101654.34;5259820;28;20414;-77
2023/09/02 05:47:18;;;;;;;9.60;5.40;;;;;;;18.10;100.00;101637.72;5273308;28;20033;-78
2023/09/02 05:49:49;;;;;;;7.13;5.83;;;;;;;18.21;100.00;101641.34;5272702;28;20031;-77
2023/09/02 05:52:21;;;;;;;9.33;6.30;;;;;;;18.02;100.00;101625.09;5273084;28;20032;-76
2023/09/02 05:54:52;;;;;;;7.40;6.57;;;;;;;18.31;100.00;101662.69;5271222;28;20021;-76
2023/09/02 05:57:23;;;;;;;10.33;7.10;;;;;;;18.33;100.00;101666.03;5274165;28;20056;-76
2023/09/02 05:59:55;;;;;;;7.77;6.70;;;;;;;18.28;100.00;101637.25;5268495;28;20020;-76
2023/09/02 06:02:27;;;;;;;11.97;7.20;;;;;;;18.34;100.00;101647.38;5269659;28;20112;-76
2023/09/02 06:04:59;;;;;;;11.00;6.67;;;;;;;18.29;100.00;101646.06;5271185;28;20044;-77
2023/09/02 06:07:30;;;;;;;7.30;6.47;;;;;;;18.48;100.00;101659.50;5273817;28;20105;-76
2023/09/02 06:10:02;;;;;;;10.53;5.93;;;;;;;18.60;100.00;101665.66;5273762;28;20021;-76
2023/09/02 06:12:33;;;;;;;7.93;6.37;;;;;;;18.52;100.00;101648.66;5274322;28;20035;-76
2023/09/02 06:15:05;;;;;;;7.10;6.40;;;;;;;18.55;100.00;101657.22;5272929;28;20027;-77
2023/09/02 06:17:37;;;;;;;8.00;6.57;;;;;;;18.78;100.00;101693.44;5269776;28;20405;-77
2023/09/02 06:20:08;;;;;;;7.03;6.23;;;;;;;18.71;100.00;101674.53;5273206;28;20044;-76
2023/09/02 06:22:40;;;;;;;11.10;6.33;;;;;;;18.51;100.00;101658.41;5263178;28;20043;-75
2023/09/02 06:25:12;;;;;;;9.47;6.47;;;;;;;18.60;100.00;101668.28;5263381;28;20068;-76
2023/09/02 06:27:43;;;;;;;8.00;6.17;;;;;;;18.62;100.00;101676.94;5262896;28;20086;-76
2023/09/02 06:30:15;;;;;;;11.53;7.53;;;;;;;18.59;100.00;101686.97;5253280;28;20033;-77
2023/09/02 06:32:46;;;;;;;8.83;7.87;;;;;;;18.52;100.00;101681.31;5266786;28;20029;-76
2023/09/02 06:35:18;;;;;;;12.00;7.00;;;;;;;18.58;100.00;101679.97;5268662;28;20124;-76
2023/09/02 06:37:49;;;;;;;12.83;7.03;;;;;;;18.68;100.00;101698.63;5273180;28;20028;-77
2023/09/02 06:40:21;;;;;;;10.57;7.13;;;;;;;18.62;100.00;101706.13;5273547;28;20570;-77
2023/09/02 06:42:52;;;;;;;9.70;6.93;;;;;;;18.65;100.00;101690.94;5263981;28;20443;-77
2023/09/02 06:45:25;;;;;;;9.40;8.50;;;;;;;18.84;100.00;101728.28;5275965;28;20028;-76
2023/09/02 06:47:57;;;;;;;12.97;8.90;;;;;;;18.84;100.00;101738.03;5276463;28;20113;-76
2023/09/02 06:50:28;;;;;;;9.30;7.63;;;;;;;18.98;100.00;101739.56;5282415;28;20024;-77
2023/09/02 06:53:00;;;;;;;8.83;7.37;;;;;;;18.80;100.00;101721.53;5275494;28;20422;-77
2023/09/02 06:55:31;;;;;;;8.80;7.90;;;;;;;18.97;100.00;101745.88;5275963;28;20064;-78
2023/09/02 06:58:03;;;;;;;12.10;7.83;;;;;;;19.00;100.00;101737.63;5272416;28;20124;-77
2023/09/02 07:00:36;;;;;;;9.70;7.30;;;;;;;19.12;100.00;101746.44;5274171;28;20182;-77
2023/09/02 07:03:07;;;;;;;8.70;7.80;;;;;;;19.03;100.00;101741.84;5267791;28;20111;-77
2023/09/02 07:05:38;;;;;;;11.60;8.10;;;;;;;19.22;100.00;101771.25;5276711;28;20108;-75
2023/09/02 07:08:10;;;;;;;11.53;8.73;;;;;;;18.98;100.00;101736.91;5273773;28;20039;-77
2023/09/02 07:10:41;;;;;;;10.37;9.27;;;;;;;19.20;100.00;101759.09;5275942;28;20028;-77
2023/09/02 07:13:13;;;;;;;13.07;9.30;;;;;;;19.03;100.00;101748.00;5274118;28;20032;-77
2023/09/02 07:15:44;;;;;;;10.50;9.40;;;;;;;19.26;100.00;101797.56;5277192;28;20050;-78
2023/09/02 07:18:15;;;;;;;11.43;8.77;;;;;;;19.24;100.00;101792.38;5276462;28;20519;-76
2023/09/02 07:20:47;;;;;;;12.87;9.80;;;;;;;19.10;100.00;101749.19;5277225;28;20108;-77
2023/09/02 07:23:19;;;;;;;10.40;9.40;;;;;;;19.31;100.00;101767.00;5267313;28;20032;-78
2023/09/02 07:25:50;;;;;;;10.70;8.87;;;;;;;19.32;100.00;101773.16;5290689;28;20034;-76
2023/09/02 07:28:22;;;;;;;14.53;9.53;;;;;;;19.55;100.00;101792.47;5286077;28;20619;-77
2023/09/02 07:30:55;;;;;;;12.23;9.53;;;;;;;19.60;100.00;101789.47;5281061;28;20028;-78
2023/09/02 07:33:27;;;;;;;12.30;9.25;;;;;;;19.61;100.00;101787.63;5274583;28;20111;-77
2023/09/02 07:36:07;;;;;;;10.67;9.40;;;;;;;19.66;100.00;101790.72;5276117;28;20129;-77
2023/09/02 07:38:39;;;;;;;11.57;9.97;;;;;;;19.53;100.00;101780.31;5273529;28;20035;-77
2023/09/02 07:41:11;;;;;;;14.23;9.27;;;;;;;19.48;100.00;101759.41;5273883;28;20032;-76
2023/09/02 07:43:42;;;;;;;9.70;8.43;;;;;;;19.66;100.00;101793.41;5275196;28;20032;-77
2023/09/02 07:46:14;;;;;;;14.00;8.30;;;;;;;19.57;100.00;101779.91;5275008;28;20017;-77
2023/09/02 07:48:48;;;;;;;11.70;8.95;;;;;;;19.70;100.00;101802.81;5275738;28;20028;-77
2023/09/02 07:51:19;;;;;;;9.73;8.73;;;;;;;19.71;100.00;101812.44;5272162;28;20062;-77
2023/09/02 07:53:51;;;;;;;14.77;9.93;;;;;;;19.89;100.00;101833.13;5273544;28;20024;-77
2023/09/02 07:56:22;;;;;;;11.98;9.80;;;;;;;19.93;100.00;101823.94;5274138;28;20127;-78
2023/09/02 07:58:53;;;;;;;11.10;9.55;;;;;;;19.78;100.00;101808.31;5275421;28;20024;-76
2023/09/02 08:01:25;;;;;;;11.15;10.10;;;;;;;19.90;100.00;101834.81;5269504;28;20021;-77
2023/09/02 08:03:59;;;;;;;12.87;11.47;;;;;;;19.78;100.00;101818.09;5274095;28;20535;-76
2023/09/02 08:06:31;;;;;;;15.87;12.80;;;;;;;19.85;100.00;101832.56;5273860;28;20559;-77
2023/09/02 08:09:02;;;;;;;14.90;13.38;;;;;;;19.75;100.00;101815.69;5274040;28;20024;-78
2023/09/02 08:11:34;;;;;;;15.55;12.70;;;;;;;19.86;100.00;101820.13;5273352;28;20021;-76
2023/09/02 08:14:05;;;;;;;15.50;13.93;;;;;;;20.04;100.00;101837.19;5274620;28;20111;-77
2023/09/02 08:16:37;;;;;;;15.93;14.30;;;;;;;20.02;100.00;101843.59;5273748;28;20518;-77
2023/09/02 08:19:11;;;;;;;19.13;14.23;;;;;;;19.86;100.00;101828.94;5281001;28;20051;-78
2023/09/02 08:21:42;;;;;;;17.98;16.15;;;;;;;19.91;100.00;101842.69;5296288;28;20095;-77
2023/09/02 08:24:16;;;;;;;18.43;16.57;;;;;;;20.01;100.00;101848.06;5294751;28;20123;-77
2023/09/02 08:26:47;;;;;;;19.00;17.30;;;;;;;19.89;100.00;101838.44;5273554;28;20032;-76
2023/09/02 08:29:18;;;;;;;19.42;17.60;;;;;;;19.91;100.00;101826.72;5292122;28;20201;-77
2023/09/02 08:31:54;;;;;;;18.63;16.95;;;;;;;20.09;100.00;101833.31;5295380;28;20500;-77
2023/09/02 08:34:25;;;;;;;19.50;17.70;;;;;;;20.14;100.00;101863.00;5280150;28;20048;-76
2023/09/02 08:36:56;;;;;;;21.17;19.10;;;;;;;20.00;100.00;101851.66;5274874;28;20048;-76
2023/09/02 08:39:28;;;;;;;19.85;18.08;;;;;;;20.19;100.00;101858.97;5283010;28;20039;-76
2023/09/02 08:41:59;;;;;;;21.58;19.48;;;;;;;20.13;100.00;101861.31;5279461;28;20072;-76
2023/09/02 08:44:35;;;;;;;19.63;17.83;;;;;;;20.26;100.00;101861.13;5272786;28;20020;-75
2023/09/02 08:47:07;;;;;;;19.33;17.67;;;;;;;20.26;100.00;101867.28;5281416;28;20035;-76
2023/09/02 08:49:38;;;;;;;21.38;19.27;;;;;;;20.19;100.00;101871.44;5276875;28;20028;-75
2023/09/02 08:52:11;;;;;;;22.08;20.00;;;;;;;20.37;100.00;101873.50;5277153;28;20499;-75
2023/09/02 08:54:43;;;;;;;20.27;18.42;;;;;;;20.19;100.00;101872.25;5272658;28;20383;-76
2023/09/02 08:57:16;;;;;;;21.33;19.52;;;;;;;20.28;100.00;101877.78;5274948;28;20024;-77
2023/09/02 08:59:47;;;;;;;21.60;19.25;;;;;;;20.30;100.00;101860.72;5271024;28;20548;-76
2023/09/02 09:02:19;;;;;;;21.60;19.73;;;;;;;20.28;100.00;101864.50;5265652;28;20036;-75
2023/09/02 09:04:52;;;;;;;22.92;20.60;;;;;;;20.26;100.00;101863.78;5261988;28;20024;-76
2023/09/02 09:07:25;;;;;;;23.05;20.77;;;;;;;20.31;100.00;101856.25;5264297;28;20094;-76
2023/09/02 09:10:01;;;;;;;22.95;21.15;;;;;;;20.40;100.00;101857.25;5271116;28;20032;-75
2023/09/02 09:12:34;;;;;;;24.10;21.83;;;;;;;20.44;100.00;101869.31;5254733;28;20603;-75
2023/09/02 09:15:07;;;;;;;24.58;22.30;;;;;;;20.67;100.00;101887.75;5266185;28;20021;-75
2023/09/02 09:17:38;;;;;;;25.65;23.52;;;;;;;20.53;100.00;101865.88;5280957;28;20032;-76
2023/09/02 09:20:11;;;;;;;29.33;26.65;;;;;;;20.77;100.00;101882.50;5294044;28;20046;-76
2023/09/02 09:22:43;;;;;;;30.75;28.15;;;;;;;20.67;100.00;101863.81;5269853;28;20047;-76
2023/09/02 09:25:14;;;;;;;28.50;26.08;;;;;;;20.59;100.00;101840.53;5273362;28;20070;-76
2023/09/02 09:27:46;;;;;;;29.40;26.92;;;;;;;20.79;100.00;101852.09;5268258;28;20467;-74
2023/09/02 09:30:28;;;;;;;29.52;26.90;;;;;;;21.40;100.00;101892.06;5275516;28;20441;-75
2023/09/02 09:33:01;;;;;;;26.67;24.55;;;;;;;21.35;100.00;101882.78;5273509;28;20075;-76
2023/09/02 09:35:33;;;;;;;28.90;25.88;;;;;;;21.25;100.00;101888.13;5272697;28;20502;-75
2023/09/02 09:38:05;;;;;;;27.08;24.80;;;;;;;21.18;100.00;101868.31;5274094;28;20043;-75
2023/09/02 09:40:38;;;;;;;25.60;23.50;;;;;;;21.33;100.00;101890.94;5271161;28;20479;-73
2023/09/02 09:43:16;;;;;;;23.25;21.15;;;;;;;21.70;100.00;101932.06;5270965;28;20111;-73
2023/09/02 09:45:50;;;;;;;22.25;20.40;;;;;;;21.57;100.00;101923.50;5271387;28;20468;-73
2023/09/02 09:48:21;;;;;;;22.27;20.40;;;;;;;21.20;100.00;101899.19;5271058;28;20028;-73
2023/09/02 09:50:53;;;;;;;23.38;21.25;;;;;;;21.53;100.00;101925.59;5271819;28;20033;-73
2023/09/02 09:53:31;;;;;;;22.70;21.00;;;;;;;21.61;100.00;101925.75;5271311;28;20395;-73
2023/09/02 09:56:02;;;;;;;23.77;21.65;;;;;;;21.63;100.00;101912.28;5270278;28;20388;-73
2023/09/02 09:58:34;;;;;;;23.45;21.30;;;;;;;21.74;100.00;101911.31;5270948;28;20669;-74
2023/09/02 10:01:08;;;;;;;22.05;20.13;;;;;;;22.07;100.00;101929.69;5271521;28;20032;-73
2023/09/02 10:03:40;;;;;;;22.95;20.83;;;;;;;21.98;100.00;101907.38;5271712;28;20339;-73
2023/09/02 10:06:11;;;;;;;22.88;20.65;;;;;;;22.09;100.00;101917.06;5272333;28;20392;-73
2023/09/02 10:08:53;;;;;;;22.08;20.20;;;;;;;22.44;100.00;101914.75;5284780;28;20024;-73
2023/09/02 10:11:26;;;;;;;22.35;20.17;;;;;;;22.22;100.00;101922.09;5273850;28;20532;-73
2023/09/02 10:13:59;;;;;;;21.67;19.83;;;;;;;22.17;100.00;101932.34;5273307;28;20036;-73
2023/09/02 10:16:33;;;;;;;20.27;18.77;;;;;;;22.30;100.00;101940.06;5271010;28;20024;-72
2023/09/02 10:19:05;;;;;;;20.17;18.63;;;;;;;22.08;100.00;101932.22;5275815;28;20464;-73
2023/09/02 10:21:39;;;;;;;18.92;17.42;;;;;;;22.39;100.00;101954.38;5286958;28;20035;-73
2023/09/02 10:24:13;;;;;;;21.25;19.35;;;;;;;22.49;100.00;101955.19;5281870;28;20073;-73
2023/09/02 10:26:52;;;;;;;18.98;17.42;;;;;;;22.65;100.00;101953.78;5296978;28;20042;-73
2023/09/02 10:29:32;;;;;;;20.27;18.63;;;;;;;22.57;100.00;101943.78;5273225;28;20020;-73
2023/09/02 10:32:13;;;;;;;18.95;16.88;;;;;;;23.19;100.00;101959.31;5275363;28;20021;-73
2023/09/02 10:34:52;;;;;;;18.83;17.27;;;;;;;23.64;100.00;101953.28;5276357;28;20131;-73
2023/09/02 10:37:27;;;;;;;17.67;16.27;;;;;;;23.73;100.00;101964.91;5273445;28;20231;-73
2023/09/02 10:40:06;;;;;;;19.50;17.80;;;;;;;23.60;100.00;101968.78;5276670;28;20024;-74
2023/09/02 10:42:38;;;;;;;18.25;16.67;;;;;;;23.82;100.00;101966.69;5274664;28;20028;-73
2023/09/02 10:45:10;;;;;;;18.58;17.00;;;;;;;23.34;100.00;101969.50;5275329;28;20380;-73
2023/09/02 10:47:45;;;;;;;19.98;18.17;;;;;;;23.45;100.00;101979.16;5274032;28;20020;-73
2023/09/02 10:50:19;;;;;;;22.08;20.05;;;;;;;23.30;100.00;101984.16;5273964;28;20020;-74
2023/09/02 10:52:52;;;;;;;22.55;20.17;;;;;;;23.30;100.00;101982.31;5278125;28;20012;-74
2023/09/02 10:55:24;;;;;;;20.80;19.00;;;;;;;23.41;100.00;101973.28;5274836;28;20025;-74
2023/09/02 10:57:56;;;;;;;22.63;20.77;;;;;;;23.02;100.00;101968.94;5275186;28;20082;-73
2023/09/02 11:00:28;;;;;;;20.83;19.00;;;;;;;23.06;100.00;101966.81;5275160;28;20024;-74
2023/09/02 11:03:00;;;;;;;23.48;21.40;;;;;;;23.08;100.00;101972.84;5274811;28;20403;-73
2023/09/02 11:06:04;;;;;;;24.73;22.17;;;;;;;23.39;100.00;101974.41;5273325;28;20031;-74
2023/09/02 11:08:49;;;;;;;23.33;21.13;;;;;;;23.28;100.00;101962.09;5269895;28;20432;-73
2023/09/02 11:11:21;;;;;;;23.83;21.77;;;;;;;22.97;100.00;101965.88;5273219;28;20033;-73
2023/09/02 11:14:07;;;;;;;24.75;22.25;;;;;;;23.31;100.00;101983.16;5272466;28;20028;-74
2023/09/02 11:16:40;;;;;;;24.20;21.65;;;;;;;22.91;100.00;101986.03;5275317;28;20032;-74
2023/09/02 11:19:12;;;;;;;24.35;22.25;;;;;;;22.75;100.00;101986.63;5261307;28;20032;-74
2023/09/02 11:21:46;;;;;;;24.70;22.30;;;;;;;22.75;100.00;101975.94;5274472;28;20506;-73
2023/09/02 11:24:22;;;;;;;25.65;23.38;;;;;;;22.90;100.00;101976.31;5274608;28;20052;-73
2023/09/02 11:26:55;;;;;;;25.98;23.60;;;;;;;22.76;100.00;101988.28;5273348;28;20028;-73
2023/09/02 11:29:28;;;;;;;27.67;21.98;;;;;;;22.64;100.00;102000.16;5258330;28;20251;-73
2023/09/02 11:32:03;;;;;;;24.58;22.25;;;;;;;22.62;100.00;101992.28;5274576;28;20031;-73